<?xml version="1.0" encoding="UTF-8" standalone="no" ?>
<gpx xmlns="http://www.topografix.com/GPX/1/1" xmlns:xsi="http://www.w3.org/2001/XMLSchema-instance" xsi:schemaLocation="http://www.topografix.com/GPX/1/1 http://www.topografix.com/GPX/1/1/gpx.xsd" version="1.1" creator="VisuGPX - https://www.visugpx.com">
  <metadata>
    <name>Roussillon, sentier des ocres</name>
    <desc><![CDATA[Circuit des Ocres de Roussillon]]></desc>
  </metadata>
  <trk>
    <name><![CDATA[Roussillon, sentier des ocres_1]]></name>
    <trkseg>
      <trkpt lat="43.90147" lon="5.29483">
        <ele>330.3</ele>
        <time>2017-04-30T08:52:48Z</time>
      </trkpt>
      <trkpt lat="43.90147" lon="5.29483">
        <ele>330.3</ele>
        <time>2017-04-30T08:53:08Z</time>
      </trkpt>
      <trkpt lat="43.90153" lon="5.29482">
        <ele>330.4</ele>
        <time>2017-04-30T08:53:15Z</time>
      </trkpt>
      <trkpt lat="43.90155" lon="5.29488">
        <ele>329.3</ele>
        <time>2017-04-30T08:53:22Z</time>
      </trkpt>
      <trkpt lat="43.90154" lon="5.29492">
        <ele>328.3</ele>
        <time>2017-04-30T08:53:29Z</time>
      </trkpt>
      <trkpt lat="43.90154" lon="5.29498">
        <ele>328.1</ele>
        <time>2017-04-30T08:53:36Z</time>
      </trkpt>
      <trkpt lat="43.90154" lon="5.29504">
        <ele>329.2</ele>
        <time>2017-04-30T08:53:43Z</time>
      </trkpt>
      <trkpt lat="43.90155" lon="5.29508">
        <ele>329.9</ele>
        <time>2017-04-30T08:53:50Z</time>
      </trkpt>
      <trkpt lat="43.90151" lon="5.29517">
        <ele>329.8</ele>
        <time>2017-04-30T08:54:16Z</time>
      </trkpt>
      <trkpt lat="43.90147" lon="5.29525">
        <ele>329.8</ele>
        <time>2017-04-30T08:54:23Z</time>
      </trkpt>
      <trkpt lat="43.90141" lon="5.29533">
        <ele>329.7</ele>
        <time>2017-04-30T08:54:30Z</time>
      </trkpt>
      <trkpt lat="43.90136" lon="5.29539">
        <ele>329.6</ele>
        <time>2017-04-30T08:54:37Z</time>
      </trkpt>
      <trkpt lat="43.9013" lon="5.29544">
        <ele>329.7</ele>
        <time>2017-04-30T08:54:44Z</time>
      </trkpt>
      <trkpt lat="43.90123" lon="5.2955">
        <ele>329.4</ele>
        <time>2017-04-30T08:54:51Z</time>
      </trkpt>
      <trkpt lat="43.90117" lon="5.29557">
        <ele>329.1</ele>
        <time>2017-04-30T08:54:57Z</time>
      </trkpt>
      <trkpt lat="43.90111" lon="5.29562">
        <ele>329.2</ele>
        <time>2017-04-30T08:55:03Z</time>
      </trkpt>
      <trkpt lat="43.90105" lon="5.29567">
        <ele>329.3</ele>
        <time>2017-04-30T08:55:10Z</time>
      </trkpt>
      <trkpt lat="43.90102" lon="5.29571">
        <ele>329.1</ele>
        <time>2017-04-30T08:55:17Z</time>
      </trkpt>
      <trkpt lat="43.90099" lon="5.29575">
        <ele>329.1</ele>
        <time>2017-04-30T08:55:24Z</time>
      </trkpt>
      <trkpt lat="43.90098" lon="5.29577">
        <ele>329.1</ele>
        <time>2017-04-30T08:55:31Z</time>
      </trkpt>
      <trkpt lat="43.90094" lon="5.29588">
        <ele>329</ele>
        <time>2017-04-30T08:55:45Z</time>
      </trkpt>
      <trkpt lat="43.9009" lon="5.29598">
        <ele>329.4</ele>
        <time>2017-04-30T08:56:09Z</time>
      </trkpt>
      <trkpt lat="43.90086" lon="5.29603">
        <ele>329.5</ele>
        <time>2017-04-30T08:56:16Z</time>
      </trkpt>
      <trkpt lat="43.90079" lon="5.29609">
        <ele>329.8</ele>
        <time>2017-04-30T08:56:23Z</time>
      </trkpt>
      <trkpt lat="43.90074" lon="5.29612">
        <ele>329.9</ele>
        <time>2017-04-30T08:56:30Z</time>
      </trkpt>
      <trkpt lat="43.90067" lon="5.29616">
        <ele>330.3</ele>
        <time>2017-04-30T08:56:37Z</time>
      </trkpt>
      <trkpt lat="43.90061" lon="5.29621">
        <ele>330.7</ele>
        <time>2017-04-30T08:56:44Z</time>
      </trkpt>
      <trkpt lat="43.90058" lon="5.29629">
        <ele>331.2</ele>
        <time>2017-04-30T08:56:51Z</time>
      </trkpt>
      <trkpt lat="43.90057" lon="5.29636">
        <ele>331.5</ele>
        <time>2017-04-30T08:56:58Z</time>
      </trkpt>
      <trkpt lat="43.90049" lon="5.29637">
        <ele>332.3</ele>
        <time>2017-04-30T08:58:07Z</time>
      </trkpt>
      <trkpt lat="43.90046" lon="5.29642">
        <ele>332.5</ele>
        <time>2017-04-30T08:58:14Z</time>
      </trkpt>
      <trkpt lat="43.90045" lon="5.29648">
        <ele>332.3</ele>
        <time>2017-04-30T08:58:21Z</time>
      </trkpt>
      <trkpt lat="43.90045" lon="5.2965">
        <ele>332.1</ele>
        <time>2017-04-30T08:58:28Z</time>
      </trkpt>
      <trkpt lat="43.90045" lon="5.29662">
        <ele>331</ele>
        <time>2017-04-30T08:58:47Z</time>
      </trkpt>
      <trkpt lat="43.90046" lon="5.29667">
        <ele>330.2</ele>
        <time>2017-04-30T08:58:54Z</time>
      </trkpt>
      <trkpt lat="43.90049" lon="5.2967">
        <ele>329.7</ele>
        <time>2017-04-30T08:59:01Z</time>
      </trkpt>
      <trkpt lat="43.90048" lon="5.29676">
        <ele>328.8</ele>
        <time>2017-04-30T08:59:08Z</time>
      </trkpt>
      <trkpt lat="43.90047" lon="5.29682">
        <ele>327.5</ele>
        <time>2017-04-30T08:59:15Z</time>
      </trkpt>
      <trkpt lat="43.90049" lon="5.2969">
        <ele>324.8</ele>
        <time>2017-04-30T08:59:22Z</time>
      </trkpt>
      <trkpt lat="43.9005" lon="5.29693">
        <ele>323.7</ele>
        <time>2017-04-30T08:59:29Z</time>
      </trkpt>
      <trkpt lat="43.9005" lon="5.29699">
        <ele>322.7</ele>
        <time>2017-04-30T08:59:36Z</time>
      </trkpt>
      <trkpt lat="43.90051" lon="5.29707">
        <ele>321.2</ele>
        <time>2017-04-30T08:59:43Z</time>
      </trkpt>
      <trkpt lat="43.90055" lon="5.29717">
        <ele>320.5</ele>
        <time>2017-04-30T08:59:51Z</time>
      </trkpt>
      <trkpt lat="43.9005" lon="5.29716">
        <ele>323.9</ele>
        <time>2017-04-30T08:59:58Z</time>
      </trkpt>
      <trkpt lat="43.9005" lon="5.29717">
        <ele>323.7</ele>
        <time>2017-04-30T09:00:05Z</time>
      </trkpt>
      <trkpt lat="43.90056" lon="5.29724">
        <ele>324</ele>
        <time>2017-04-30T09:00:10Z</time>
      </trkpt>
      <trkpt lat="43.90054" lon="5.29718">
        <ele>321.8</ele>
        <time>2017-04-30T09:00:17Z</time>
      </trkpt>
      <trkpt lat="43.90051" lon="5.29714">
        <ele>322.1</ele>
        <time>2017-04-30T09:00:24Z</time>
      </trkpt>
      <trkpt lat="43.90053" lon="5.29712">
        <ele>320.7</ele>
        <time>2017-04-30T09:00:31Z</time>
      </trkpt>
      <trkpt lat="43.90056" lon="5.29709">
        <ele>320</ele>
        <time>2017-04-30T09:00:38Z</time>
      </trkpt>
      <trkpt lat="43.90062" lon="5.29705">
        <ele>315.6</ele>
        <time>2017-04-30T09:01:18Z</time>
      </trkpt>
      <trkpt lat="43.90062" lon="5.29704">
        <ele>315.5</ele>
        <time>2017-04-30T09:01:25Z</time>
      </trkpt>
      <trkpt lat="43.90067" lon="5.2971">
        <ele>316.7</ele>
        <time>2017-04-30T09:01:50Z</time>
      </trkpt>
      <trkpt lat="43.90072" lon="5.29711">
        <ele>316.7</ele>
        <time>2017-04-30T09:01:57Z</time>
      </trkpt>
      <trkpt lat="43.90079" lon="5.29709">
        <ele>316.6</ele>
        <time>2017-04-30T09:02:04Z</time>
      </trkpt>
      <trkpt lat="43.90084" lon="5.29708">
        <ele>317.2</ele>
        <time>2017-04-30T09:02:11Z</time>
      </trkpt>
      <trkpt lat="43.90089" lon="5.29708">
        <ele>317.8</ele>
        <time>2017-04-30T09:02:18Z</time>
      </trkpt>
      <trkpt lat="43.90091" lon="5.29711">
        <ele>318.8</ele>
        <time>2017-04-30T09:02:25Z</time>
      </trkpt>
      <trkpt lat="43.9009" lon="5.29715">
        <ele>319.2</ele>
        <time>2017-04-30T09:02:32Z</time>
      </trkpt>
      <trkpt lat="43.9009" lon="5.29719">
        <ele>319.7</ele>
        <time>2017-04-30T09:02:39Z</time>
      </trkpt>
      <trkpt lat="43.90089" lon="5.29725">
        <ele>320.2</ele>
        <time>2017-04-30T09:02:46Z</time>
      </trkpt>
      <trkpt lat="43.90088" lon="5.2973">
        <ele>320.6</ele>
        <time>2017-04-30T09:02:53Z</time>
      </trkpt>
      <trkpt lat="43.90086" lon="5.29735">
        <ele>320.9</ele>
        <time>2017-04-30T09:03:00Z</time>
      </trkpt>
      <trkpt lat="43.90085" lon="5.29736">
        <ele>321.8</ele>
        <time>2017-04-30T09:03:07Z</time>
      </trkpt>
      <trkpt lat="43.90085" lon="5.29732">
        <ele>322.6</ele>
        <time>2017-04-30T09:03:14Z</time>
      </trkpt>
      <trkpt lat="43.90077" lon="5.29733">
        <ele>323.1</ele>
        <time>2017-04-30T09:03:26Z</time>
      </trkpt>
      <trkpt lat="43.90074" lon="5.29735">
        <ele>323.5</ele>
        <time>2017-04-30T09:03:33Z</time>
      </trkpt>
      <trkpt lat="43.9007" lon="5.29735">
        <ele>323.9</ele>
        <time>2017-04-30T09:03:40Z</time>
      </trkpt>
      <trkpt lat="43.90068" lon="5.29737">
        <ele>323.7</ele>
        <time>2017-04-30T09:03:47Z</time>
      </trkpt>
      <trkpt lat="43.90071" lon="5.2974">
        <ele>324.1</ele>
        <time>2017-04-30T09:04:55Z</time>
      </trkpt>
      <trkpt lat="43.90076" lon="5.29739">
        <ele>324.2</ele>
        <time>2017-04-30T09:05:02Z</time>
      </trkpt>
      <trkpt lat="43.90073" lon="5.29739">
        <ele>324.8</ele>
        <time>2017-04-30T09:05:20Z</time>
      </trkpt>
      <trkpt lat="43.90074" lon="5.29741">
        <ele>324.3</ele>
        <time>2017-04-30T09:05:27Z</time>
      </trkpt>
      <trkpt lat="43.90073" lon="5.29758">
        <ele>323.6</ele>
        <time>2017-04-30T09:06:18Z</time>
      </trkpt>
      <trkpt lat="43.90077" lon="5.2976">
        <ele>324.5</ele>
        <time>2017-04-30T09:06:25Z</time>
      </trkpt>
      <trkpt lat="43.9008" lon="5.29761">
        <ele>325</ele>
        <time>2017-04-30T09:06:32Z</time>
      </trkpt>
      <trkpt lat="43.90081" lon="5.29763">
        <ele>325.3</ele>
        <time>2017-04-30T09:06:39Z</time>
      </trkpt>
      <trkpt lat="43.90082" lon="5.29769">
        <ele>325.4</ele>
        <time>2017-04-30T09:06:46Z</time>
      </trkpt>
      <trkpt lat="43.90082" lon="5.29775">
        <ele>325.2</ele>
        <time>2017-04-30T09:06:53Z</time>
      </trkpt>
      <trkpt lat="43.90082" lon="5.29782">
        <ele>325</ele>
        <time>2017-04-30T09:07:00Z</time>
      </trkpt>
      <trkpt lat="43.90084" lon="5.2979">
        <ele>324.6</ele>
        <time>2017-04-30T09:07:07Z</time>
      </trkpt>
      <trkpt lat="43.90085" lon="5.29797">
        <ele>324.3</ele>
        <time>2017-04-30T09:07:14Z</time>
      </trkpt>
      <trkpt lat="43.90086" lon="5.29805">
        <ele>323.9</ele>
        <time>2017-04-30T09:07:21Z</time>
      </trkpt>
      <trkpt lat="43.90086" lon="5.29812">
        <ele>323.1</ele>
        <time>2017-04-30T09:07:28Z</time>
      </trkpt>
      <trkpt lat="43.90086" lon="5.29819">
        <ele>322.8</ele>
        <time>2017-04-30T09:07:35Z</time>
      </trkpt>
      <trkpt lat="43.90086" lon="5.29827">
        <ele>322.5</ele>
        <time>2017-04-30T09:07:42Z</time>
      </trkpt>
      <trkpt lat="43.90086" lon="5.29835">
        <ele>322.1</ele>
        <time>2017-04-30T09:07:49Z</time>
      </trkpt>
      <trkpt lat="43.90084" lon="5.29841">
        <ele>320.8</ele>
        <time>2017-04-30T09:07:56Z</time>
      </trkpt>
      <trkpt lat="43.90083" lon="5.29846">
        <ele>319.1</ele>
        <time>2017-04-30T09:08:03Z</time>
      </trkpt>
      <trkpt lat="43.90082" lon="5.29852">
        <ele>317.7</ele>
        <time>2017-04-30T09:08:10Z</time>
      </trkpt>
      <trkpt lat="43.90079" lon="5.29861">
        <ele>315.6</ele>
        <time>2017-04-30T09:08:17Z</time>
      </trkpt>
      <trkpt lat="43.90077" lon="5.29869">
        <ele>314.4</ele>
        <time>2017-04-30T09:08:24Z</time>
      </trkpt>
      <trkpt lat="43.90077" lon="5.29876">
        <ele>312.9</ele>
        <time>2017-04-30T09:08:31Z</time>
      </trkpt>
      <trkpt lat="43.90074" lon="5.2988">
        <ele>311.9</ele>
        <time>2017-04-30T09:08:38Z</time>
      </trkpt>
      <trkpt lat="43.90073" lon="5.29878">
        <ele>311.1</ele>
        <time>2017-04-30T09:08:45Z</time>
      </trkpt>
      <trkpt lat="43.9007" lon="5.29876">
        <ele>310.1</ele>
        <time>2017-04-30T09:08:52Z</time>
      </trkpt>
      <trkpt lat="43.90066" lon="5.29873">
        <ele>309</ele>
        <time>2017-04-30T09:08:59Z</time>
      </trkpt>
      <trkpt lat="43.90059" lon="5.2987">
        <ele>307</ele>
        <time>2017-04-30T09:09:06Z</time>
      </trkpt>
      <trkpt lat="43.90054" lon="5.29863">
        <ele>304.6</ele>
        <time>2017-04-30T09:09:13Z</time>
      </trkpt>
      <trkpt lat="43.9005" lon="5.29859">
        <ele>303.2</ele>
        <time>2017-04-30T09:09:20Z</time>
      </trkpt>
      <trkpt lat="43.90042" lon="5.29857">
        <ele>302.7</ele>
        <time>2017-04-30T09:09:27Z</time>
      </trkpt>
      <trkpt lat="43.90036" lon="5.29858">
        <ele>302.2</ele>
        <time>2017-04-30T09:09:34Z</time>
      </trkpt>
      <trkpt lat="43.90031" lon="5.29857">
        <ele>302.3</ele>
        <time>2017-04-30T09:09:41Z</time>
      </trkpt>
      <trkpt lat="43.90024" lon="5.2986">
        <ele>302.6</ele>
        <time>2017-04-30T09:09:48Z</time>
      </trkpt>
      <trkpt lat="43.90023" lon="5.29865">
        <ele>302.6</ele>
        <time>2017-04-30T09:09:55Z</time>
      </trkpt>
      <trkpt lat="43.90022" lon="5.29867">
        <ele>302.6</ele>
        <time>2017-04-30T09:10:02Z</time>
      </trkpt>
      <trkpt lat="43.90027" lon="5.2989">
        <ele>304.1</ele>
        <time>2017-04-30T09:11:42Z</time>
      </trkpt>
      <trkpt lat="43.90029" lon="5.29895">
        <ele>304.4</ele>
        <time>2017-04-30T09:11:49Z</time>
      </trkpt>
      <trkpt lat="43.90024" lon="5.29898">
        <ele>304.2</ele>
        <time>2017-04-30T09:11:56Z</time>
      </trkpt>
      <trkpt lat="43.90022" lon="5.29894">
        <ele>303.9</ele>
        <time>2017-04-30T09:12:03Z</time>
      </trkpt>
      <trkpt lat="43.90019" lon="5.29892">
        <ele>304.1</ele>
        <time>2017-04-30T09:12:10Z</time>
      </trkpt>
      <trkpt lat="43.90018" lon="5.29887">
        <ele>303.9</ele>
        <time>2017-04-30T09:12:17Z</time>
      </trkpt>
      <trkpt lat="43.90015" lon="5.29882">
        <ele>303.9</ele>
        <time>2017-04-30T09:12:24Z</time>
      </trkpt>
      <trkpt lat="43.90012" lon="5.29878">
        <ele>303.9</ele>
        <time>2017-04-30T09:12:31Z</time>
      </trkpt>
      <trkpt lat="43.90008" lon="5.29874">
        <ele>303.6</ele>
        <time>2017-04-30T09:12:38Z</time>
      </trkpt>
      <trkpt lat="43.90003" lon="5.29874">
        <ele>303.3</ele>
        <time>2017-04-30T09:12:45Z</time>
      </trkpt>
      <trkpt lat="43.9" lon="5.29876">
        <ele>303.6</ele>
        <time>2017-04-30T09:12:52Z</time>
      </trkpt>
      <trkpt lat="43.89998" lon="5.29873">
        <ele>303.8</ele>
        <time>2017-04-30T09:12:59Z</time>
      </trkpt>
      <trkpt lat="43.89994" lon="5.2987">
        <ele>304.1</ele>
        <time>2017-04-30T09:13:06Z</time>
      </trkpt>
      <trkpt lat="43.8999" lon="5.29871">
        <ele>305.6</ele>
        <time>2017-04-30T09:13:13Z</time>
      </trkpt>
      <trkpt lat="43.89989" lon="5.29876">
        <ele>305.4</ele>
        <time>2017-04-30T09:13:20Z</time>
      </trkpt>
      <trkpt lat="43.89981" lon="5.29878">
        <ele>305.4</ele>
        <time>2017-04-30T09:13:41Z</time>
      </trkpt>
      <trkpt lat="43.89978" lon="5.29877">
        <ele>305.4</ele>
        <time>2017-04-30T09:13:48Z</time>
      </trkpt>
      <trkpt lat="43.89974" lon="5.29877">
        <ele>305.1</ele>
        <time>2017-04-30T09:13:55Z</time>
      </trkpt>
      <trkpt lat="43.89966" lon="5.29881">
        <ele>304.7</ele>
        <time>2017-04-30T09:14:02Z</time>
      </trkpt>
      <trkpt lat="43.89962" lon="5.29885">
        <ele>305</ele>
        <time>2017-04-30T09:14:09Z</time>
      </trkpt>
      <trkpt lat="43.8996" lon="5.29885">
        <ele>305.1</ele>
        <time>2017-04-30T09:14:16Z</time>
      </trkpt>
      <trkpt lat="43.89954" lon="5.29882">
        <ele>305</ele>
        <time>2017-04-30T09:14:27Z</time>
      </trkpt>
      <trkpt lat="43.89949" lon="5.29883">
        <ele>305.4</ele>
        <time>2017-04-30T09:14:34Z</time>
      </trkpt>
      <trkpt lat="43.89947" lon="5.29881">
        <ele>305.2</ele>
        <time>2017-04-30T09:14:41Z</time>
      </trkpt>
      <trkpt lat="43.89943" lon="5.29879">
        <ele>305.8</ele>
        <time>2017-04-30T09:14:48Z</time>
      </trkpt>
      <trkpt lat="43.89937" lon="5.29876">
        <ele>306.3</ele>
        <time>2017-04-30T09:14:55Z</time>
      </trkpt>
      <trkpt lat="43.89931" lon="5.29872">
        <ele>307</ele>
        <time>2017-04-30T09:15:02Z</time>
      </trkpt>
      <trkpt lat="43.89925" lon="5.29869">
        <ele>306.9</ele>
        <time>2017-04-30T09:15:09Z</time>
      </trkpt>
      <trkpt lat="43.8992" lon="5.29869">
        <ele>307.3</ele>
        <time>2017-04-30T09:15:16Z</time>
      </trkpt>
      <trkpt lat="43.89916" lon="5.29868">
        <ele>307.5</ele>
        <time>2017-04-30T09:15:23Z</time>
      </trkpt>
      <trkpt lat="43.8991" lon="5.29867">
        <ele>309.5</ele>
        <time>2017-04-30T09:17:08Z</time>
      </trkpt>
      <trkpt lat="43.89905" lon="5.29868">
        <ele>310.4</ele>
        <time>2017-04-30T09:17:15Z</time>
      </trkpt>
      <trkpt lat="43.899" lon="5.29872">
        <ele>310.5</ele>
        <time>2017-04-30T09:17:22Z</time>
      </trkpt>
      <trkpt lat="43.89894" lon="5.29877">
        <ele>310.9</ele>
        <time>2017-04-30T09:17:41Z</time>
      </trkpt>
      <trkpt lat="43.89892" lon="5.29877">
        <ele>310.5</ele>
        <time>2017-04-30T09:17:48Z</time>
      </trkpt>
      <trkpt lat="43.89891" lon="5.29882">
        <ele>310.9</ele>
        <time>2017-04-30T09:17:55Z</time>
      </trkpt>
      <trkpt lat="43.89899" lon="5.29896">
        <ele>313.5</ele>
        <time>2017-04-30T09:20:50Z</time>
      </trkpt>
      <trkpt lat="43.89902" lon="5.29897">
        <ele>313.3</ele>
        <time>2017-04-30T09:20:57Z</time>
      </trkpt>
      <trkpt lat="43.89905" lon="5.29905">
        <ele>313</ele>
        <time>2017-04-30T09:21:04Z</time>
      </trkpt>
      <trkpt lat="43.8991" lon="5.29909">
        <ele>313</ele>
        <time>2017-04-30T09:21:11Z</time>
      </trkpt>
      <trkpt lat="43.89914" lon="5.29914">
        <ele>312.8</ele>
        <time>2017-04-30T09:21:18Z</time>
      </trkpt>
      <trkpt lat="43.89916" lon="5.29915">
        <ele>312.5</ele>
        <time>2017-04-30T09:21:25Z</time>
      </trkpt>
      <trkpt lat="43.89921" lon="5.29922">
        <ele>312</ele>
        <time>2017-04-30T09:21:40Z</time>
      </trkpt>
      <trkpt lat="43.89924" lon="5.2993">
        <ele>311.6</ele>
        <time>2017-04-30T09:21:47Z</time>
      </trkpt>
      <trkpt lat="43.89927" lon="5.29935">
        <ele>311.3</ele>
        <time>2017-04-30T09:21:54Z</time>
      </trkpt>
      <trkpt lat="43.89932" lon="5.29937">
        <ele>311.3</ele>
        <time>2017-04-30T09:22:01Z</time>
      </trkpt>
      <trkpt lat="43.89935" lon="5.29938">
        <ele>311.7</ele>
        <time>2017-04-30T09:22:08Z</time>
      </trkpt>
      <trkpt lat="43.89936" lon="5.29944">
        <ele>311.1</ele>
        <time>2017-04-30T09:22:27Z</time>
      </trkpt>
      <trkpt lat="43.89939" lon="5.29956">
        <ele>310.5</ele>
        <time>2017-04-30T09:22:39Z</time>
      </trkpt>
      <trkpt lat="43.89942" lon="5.29961">
        <ele>309.8</ele>
        <time>2017-04-30T09:22:46Z</time>
      </trkpt>
      <trkpt lat="43.89947" lon="5.29962">
        <ele>309.1</ele>
        <time>2017-04-30T09:22:53Z</time>
      </trkpt>
      <trkpt lat="43.89952" lon="5.29959">
        <ele>308.3</ele>
        <time>2017-04-30T09:23:00Z</time>
      </trkpt>
      <trkpt lat="43.89956" lon="5.2996">
        <ele>307.2</ele>
        <time>2017-04-30T09:23:07Z</time>
      </trkpt>
      <trkpt lat="43.89958" lon="5.29959">
        <ele>306.2</ele>
        <time>2017-04-30T09:23:14Z</time>
      </trkpt>
      <trkpt lat="43.89964" lon="5.29958">
        <ele>305.6</ele>
        <time>2017-04-30T09:23:21Z</time>
      </trkpt>
      <trkpt lat="43.8997" lon="5.29956">
        <ele>304.6</ele>
        <time>2017-04-30T09:23:28Z</time>
      </trkpt>
      <trkpt lat="43.89972" lon="5.29955">
        <ele>303.5</ele>
        <time>2017-04-30T09:23:35Z</time>
      </trkpt>
      <trkpt lat="43.89976" lon="5.29956">
        <ele>302.9</ele>
        <time>2017-04-30T09:23:42Z</time>
      </trkpt>
      <trkpt lat="43.89983" lon="5.29955">
        <ele>302.1</ele>
        <time>2017-04-30T09:23:48Z</time>
      </trkpt>
      <trkpt lat="43.8999" lon="5.29953">
        <ele>301.5</ele>
        <time>2017-04-30T09:23:55Z</time>
      </trkpt>
      <trkpt lat="43.89991" lon="5.29952">
        <ele>299.8</ele>
        <time>2017-04-30T09:24:02Z</time>
      </trkpt>
      <trkpt lat="43.89992" lon="5.29953">
        <ele>299.3</ele>
        <time>2017-04-30T09:24:23Z</time>
      </trkpt>
      <trkpt lat="43.89999" lon="5.29952">
        <ele>295.4</ele>
        <time>2017-04-30T09:24:40Z</time>
      </trkpt>
      <trkpt lat="43.9" lon="5.2995">
        <ele>295.7</ele>
        <time>2017-04-30T09:24:47Z</time>
      </trkpt>
      <trkpt lat="43.90003" lon="5.29947">
        <ele>295.5</ele>
        <time>2017-04-30T09:25:02Z</time>
      </trkpt>
      <trkpt lat="43.90006" lon="5.29949">
        <ele>298.5</ele>
        <time>2017-04-30T09:25:19Z</time>
      </trkpt>
      <trkpt lat="43.90012" lon="5.29947">
        <ele>298.9</ele>
        <time>2017-04-30T09:25:26Z</time>
      </trkpt>
      <trkpt lat="43.90019" lon="5.29946">
        <ele>297.7</ele>
        <time>2017-04-30T09:25:33Z</time>
      </trkpt>
      <trkpt lat="43.90026" lon="5.29945">
        <ele>296.9</ele>
        <time>2017-04-30T09:25:40Z</time>
      </trkpt>
      <trkpt lat="43.90026" lon="5.29943">
        <ele>296.8</ele>
        <time>2017-04-30T09:25:47Z</time>
      </trkpt>
      <trkpt lat="43.90017" lon="5.29939">
        <ele>298.3</ele>
        <time>2017-04-30T09:25:53Z</time>
      </trkpt>
      <trkpt lat="43.90019" lon="5.29941">
        <ele>299.5</ele>
        <time>2017-04-30T09:26:00Z</time>
      </trkpt>
      <trkpt lat="43.90026" lon="5.2994">
        <ele>299.6</ele>
        <time>2017-04-30T09:26:07Z</time>
      </trkpt>
      <trkpt lat="43.90032" lon="5.29941">
        <ele>300.2</ele>
        <time>2017-04-30T09:26:14Z</time>
      </trkpt>
      <trkpt lat="43.90036" lon="5.29939">
        <ele>300.4</ele>
        <time>2017-04-30T09:26:21Z</time>
      </trkpt>
      <trkpt lat="43.90043" lon="5.29937">
        <ele>300.2</ele>
        <time>2017-04-30T09:26:28Z</time>
      </trkpt>
      <trkpt lat="43.90049" lon="5.29932">
        <ele>301.3</ele>
        <time>2017-04-30T09:26:35Z</time>
      </trkpt>
      <trkpt lat="43.90054" lon="5.29927">
        <ele>302.1</ele>
        <time>2017-04-30T09:26:42Z</time>
      </trkpt>
      <trkpt lat="43.90053" lon="5.2992">
        <ele>302.8</ele>
        <time>2017-04-30T09:26:49Z</time>
      </trkpt>
      <trkpt lat="43.90052" lon="5.29914">
        <ele>303.4</ele>
        <time>2017-04-30T09:26:56Z</time>
      </trkpt>
      <trkpt lat="43.90051" lon="5.2991">
        <ele>303.3</ele>
        <time>2017-04-30T09:27:03Z</time>
      </trkpt>
      <trkpt lat="43.90059" lon="5.29906">
        <ele>303.5</ele>
        <time>2017-04-30T09:27:51Z</time>
      </trkpt>
      <trkpt lat="43.90066" lon="5.29904">
        <ele>303.1</ele>
        <time>2017-04-30T09:27:58Z</time>
      </trkpt>
      <trkpt lat="43.90073" lon="5.29903">
        <ele>303.1</ele>
        <time>2017-04-30T09:28:05Z</time>
      </trkpt>
      <trkpt lat="43.90079" lon="5.29904">
        <ele>303</ele>
        <time>2017-04-30T09:28:12Z</time>
      </trkpt>
      <trkpt lat="43.90085" lon="5.29904">
        <ele>302.1</ele>
        <time>2017-04-30T09:28:19Z</time>
      </trkpt>
      <trkpt lat="43.9009" lon="5.29901">
        <ele>301.2</ele>
        <time>2017-04-30T09:28:26Z</time>
      </trkpt>
      <trkpt lat="43.90093" lon="5.29898">
        <ele>300.3</ele>
        <time>2017-04-30T09:28:33Z</time>
      </trkpt>
      <trkpt lat="43.90093" lon="5.29889">
        <ele>299.6</ele>
        <time>2017-04-30T09:28:40Z</time>
      </trkpt>
      <trkpt lat="43.90094" lon="5.29886">
        <ele>298.7</ele>
        <time>2017-04-30T09:28:47Z</time>
      </trkpt>
      <trkpt lat="43.901" lon="5.29881">
        <ele>297.4</ele>
        <time>2017-04-30T09:28:54Z</time>
      </trkpt>
      <trkpt lat="43.90105" lon="5.29876">
        <ele>296.2</ele>
        <time>2017-04-30T09:29:01Z</time>
      </trkpt>
      <trkpt lat="43.90109" lon="5.29867">
        <ele>295.2</ele>
        <time>2017-04-30T09:29:08Z</time>
      </trkpt>
      <trkpt lat="43.90111" lon="5.29857">
        <ele>295.1</ele>
        <time>2017-04-30T09:29:14Z</time>
      </trkpt>
      <trkpt lat="43.90112" lon="5.29848">
        <ele>294.1</ele>
        <time>2017-04-30T09:29:21Z</time>
      </trkpt>
      <trkpt lat="43.90111" lon="5.2984">
        <ele>293.9</ele>
        <time>2017-04-30T09:29:28Z</time>
      </trkpt>
      <trkpt lat="43.9011" lon="5.29833">
        <ele>293.8</ele>
        <time>2017-04-30T09:29:35Z</time>
      </trkpt>
      <trkpt lat="43.90109" lon="5.29826">
        <ele>293.9</ele>
        <time>2017-04-30T09:29:42Z</time>
      </trkpt>
      <trkpt lat="43.90106" lon="5.29819">
        <ele>293.4</ele>
        <time>2017-04-30T09:29:49Z</time>
      </trkpt>
      <trkpt lat="43.90106" lon="5.29811">
        <ele>292.9</ele>
        <time>2017-04-30T09:29:56Z</time>
      </trkpt>
      <trkpt lat="43.90106" lon="5.29807">
        <ele>293</ele>
        <time>2017-04-30T09:30:03Z</time>
      </trkpt>
      <trkpt lat="43.90107" lon="5.29801">
        <ele>293.2</ele>
        <time>2017-04-30T09:30:10Z</time>
      </trkpt>
      <trkpt lat="43.90108" lon="5.29796">
        <ele>293.9</ele>
        <time>2017-04-30T09:30:17Z</time>
      </trkpt>
      <trkpt lat="43.90109" lon="5.29792">
        <ele>294.6</ele>
        <time>2017-04-30T09:30:24Z</time>
      </trkpt>
      <trkpt lat="43.90112" lon="5.29787">
        <ele>295.1</ele>
        <time>2017-04-30T09:30:31Z</time>
      </trkpt>
      <trkpt lat="43.90113" lon="5.29779">
        <ele>295.8</ele>
        <time>2017-04-30T09:30:38Z</time>
      </trkpt>
      <trkpt lat="43.90112" lon="5.29772">
        <ele>295.7</ele>
        <time>2017-04-30T09:30:45Z</time>
      </trkpt>
      <trkpt lat="43.90111" lon="5.29765">
        <ele>295.6</ele>
        <time>2017-04-30T09:30:52Z</time>
      </trkpt>
      <trkpt lat="43.9011" lon="5.29762">
        <ele>295.4</ele>
        <time>2017-04-30T09:30:59Z</time>
      </trkpt>
      <trkpt lat="43.90108" lon="5.29756">
        <ele>294.5</ele>
        <time>2017-04-30T09:31:06Z</time>
      </trkpt>
      <trkpt lat="43.90108" lon="5.29745">
        <ele>295</ele>
        <time>2017-04-30T09:31:11Z</time>
      </trkpt>
      <trkpt lat="43.90107" lon="5.29734">
        <ele>296.5</ele>
        <time>2017-04-30T09:31:17Z</time>
      </trkpt>
      <trkpt lat="43.90105" lon="5.29726">
        <ele>297.6</ele>
        <time>2017-04-30T09:31:24Z</time>
      </trkpt>
      <trkpt lat="43.90106" lon="5.29721">
        <ele>298</ele>
        <time>2017-04-30T09:31:31Z</time>
      </trkpt>
      <trkpt lat="43.90102" lon="5.29716">
        <ele>298.8</ele>
        <time>2017-04-30T09:31:38Z</time>
      </trkpt>
      <trkpt lat="43.901" lon="5.2971">
        <ele>299.4</ele>
        <time>2017-04-30T09:31:45Z</time>
      </trkpt>
      <trkpt lat="43.90099" lon="5.29705">
        <ele>301.2</ele>
        <time>2017-04-30T09:31:52Z</time>
      </trkpt>
      <trkpt lat="43.9009" lon="5.29701">
        <ele>303.1</ele>
        <time>2017-04-30T09:32:10Z</time>
      </trkpt>
      <trkpt lat="43.90088" lon="5.29702">
        <ele>303.4</ele>
        <time>2017-04-30T09:32:17Z</time>
      </trkpt>
      <trkpt lat="43.90081" lon="5.29704">
        <ele>304.6</ele>
        <time>2017-04-30T09:32:22Z</time>
      </trkpt>
      <trkpt lat="43.90077" lon="5.29708">
        <ele>305.2</ele>
        <time>2017-04-30T09:32:29Z</time>
      </trkpt>
      <trkpt lat="43.90071" lon="5.29712">
        <ele>304.8</ele>
        <time>2017-04-30T09:32:36Z</time>
      </trkpt>
      <trkpt lat="43.90069" lon="5.29714">
        <ele>304.1</ele>
        <time>2017-04-30T09:32:43Z</time>
      </trkpt>
      <trkpt lat="43.90063" lon="5.29712">
        <ele>304.4</ele>
        <time>2017-04-30T09:32:50Z</time>
      </trkpt>
      <trkpt lat="43.90057" lon="5.29708">
        <ele>304.2</ele>
        <time>2017-04-30T09:32:57Z</time>
      </trkpt>
      <trkpt lat="43.90057" lon="5.29706">
        <ele>304.6</ele>
        <time>2017-04-30T09:33:04Z</time>
      </trkpt>
      <trkpt lat="43.90057" lon="5.29701">
        <ele>311.1</ele>
        <time>2017-04-30T09:34:04Z</time>
      </trkpt>
      <trkpt lat="43.90056" lon="5.29696">
        <ele>310.1</ele>
        <time>2017-04-30T09:34:11Z</time>
      </trkpt>
      <trkpt lat="43.9005" lon="5.29692">
        <ele>309.9</ele>
        <time>2017-04-30T09:34:24Z</time>
      </trkpt>
      <trkpt lat="43.9005" lon="5.29685">
        <ele>309.9</ele>
        <time>2017-04-30T09:34:31Z</time>
      </trkpt>
      <trkpt lat="43.9005" lon="5.29679">
        <ele>309.9</ele>
        <time>2017-04-30T09:34:38Z</time>
      </trkpt>
      <trkpt lat="43.90048" lon="5.29672">
        <ele>310</ele>
        <time>2017-04-30T09:34:45Z</time>
      </trkpt>
      <trkpt lat="43.90044" lon="5.29666">
        <ele>310.1</ele>
        <time>2017-04-30T09:34:52Z</time>
      </trkpt>
      <trkpt lat="43.90041" lon="5.29662">
        <ele>310.5</ele>
        <time>2017-04-30T09:34:59Z</time>
      </trkpt>
      <trkpt lat="43.9004" lon="5.29657">
        <ele>310.9</ele>
        <time>2017-04-30T09:35:06Z</time>
      </trkpt>
      <trkpt lat="43.9004" lon="5.29653">
        <ele>311.6</ele>
        <time>2017-04-30T09:35:13Z</time>
      </trkpt>
      <trkpt lat="43.9004" lon="5.29648">
        <ele>312.4</ele>
        <time>2017-04-30T09:35:20Z</time>
      </trkpt>
      <trkpt lat="43.90044" lon="5.29645">
        <ele>312.9</ele>
        <time>2017-04-30T09:35:27Z</time>
      </trkpt>
      <trkpt lat="43.90043" lon="5.29642">
        <ele>312.4</ele>
        <time>2017-04-30T09:35:34Z</time>
      </trkpt>
      <trkpt lat="43.90048" lon="5.29638">
        <ele>312.9</ele>
        <time>2017-04-30T09:35:41Z</time>
      </trkpt>
      <trkpt lat="43.90049" lon="5.29632">
        <ele>312.6</ele>
        <time>2017-04-30T09:35:48Z</time>
      </trkpt>
      <trkpt lat="43.90049" lon="5.29631">
        <ele>312.3</ele>
        <time>2017-04-30T09:35:55Z</time>
      </trkpt>
      <trkpt lat="43.90051" lon="5.29626">
        <ele>311.8</ele>
        <time>2017-04-30T09:36:02Z</time>
      </trkpt>
      <trkpt lat="43.90055" lon="5.29623">
        <ele>310.5</ele>
        <time>2017-04-30T09:36:09Z</time>
      </trkpt>
      <trkpt lat="43.90063" lon="5.29622">
        <ele>309.2</ele>
        <time>2017-04-30T09:36:16Z</time>
      </trkpt>
      <trkpt lat="43.90069" lon="5.29616">
        <ele>308.7</ele>
        <time>2017-04-30T09:36:23Z</time>
      </trkpt>
      <trkpt lat="43.90076" lon="5.29612">
        <ele>308.5</ele>
        <time>2017-04-30T09:36:29Z</time>
      </trkpt>
      <trkpt lat="43.90082" lon="5.29606">
        <ele>308.2</ele>
        <time>2017-04-30T09:36:35Z</time>
      </trkpt>
      <trkpt lat="43.90086" lon="5.29597">
        <ele>308.1</ele>
        <time>2017-04-30T09:36:42Z</time>
      </trkpt>
      <trkpt lat="43.90088" lon="5.29587">
        <ele>307.6</ele>
        <time>2017-04-30T09:36:48Z</time>
      </trkpt>
    </trkseg>
  </trk>
</gpx>